Time;durP1;ratioP1;P1;durP2;ratioP2;P2;SDS_P1;SDS_P2;PMS_P1;PMS_P2;Temp;Humidity;BMP_temperature;BMP_pressure;BME280_temperature;BME280_humidity;BME280_pressure;Samples;Min_cycle;Max_cycle;Signal;HPM_P1;HPM_P2
2023/12/20 00:02:26;;;;;;;11.90;7.50;;;;;;;5.68;65.95;98832.46;107142;1260;60443;-39
2023/12/20 00:04:54;;;;;;;13.60;7.10;;;;;;;5.74;65.81;98826.02;107135;1257;60558;-39
2023/12/20 00:07:21;;;;;;;13.70;8.00;;;;;;;5.82;65.42;98830.25;107146;1257;73809;-39
2023/12/20 00:09:49;;;;;;;11.70;7.20;;;;;;;5.85;65.26;98822.89;107170;1257;66306;-39
2023/12/20 00:12:16;;;;;;;12.80;7.40;;;;;;;5.85;65.09;98814.98;107130;1260;71070;-39
2023/12/20 00:14:44;;;;;;;11.60;8.00;;;;;;;5.87;65.16;98819.89;107123;1258;60584;-39
2023/12/20 00:17:11;;;;;;;9.40;6.90;;;;;;;5.88;65.17;98819.91;107153;1257;60351;-39
2023/12/20 00:19:40;;;;;;;12.00;7.70;;;;;;;5.88;65.08;98813.86;107252;1257;72406;-39
2023/12/20 00:22:08;;;;;;;12.00;7.40;;;;;;;5.89;65.07;98807.66;107161;1257;66649;-40
2023/12/20 00:24:35;;;;;;;11.40;7.20;;;;;;;5.88;65.17;98802.88;107095;1257;72468;-40
2023/12/20 00:27:04;;;;;;;10.80;7.30;;;;;;;5.87;65.23;98791.84;107150;1257;60459;-40
2023/12/20 00:29:31;;;;;;;13.90;7.40;;;;;;;5.86;65.08;98787.02;107215;1257;60436;-41
2023/12/20 00:31:59;;;;;;;10.70;7.10;;;;;;;5.86;65.03;98782.80;107173;1258;72792;-40
2023/12/20 00:34:26;;;;;;;11.20;6.30;;;;;;;5.91;64.85;98786.81;107175;1257;67658;-40
2023/12/20 00:36:54;;;;;;;9.80;6.80;;;;;;;5.98;64.65;98790.47;107115;1257;71363;-40
2023/12/20 00:39:22;;;;;;;12.30;7.40;;;;;;;5.99;64.65;98788.67;107111;1262;60190;-40
2023/12/20 00:41:50;;;;;;;10.60;6.80;;;;;;;5.99;64.55;98791.34;107135;1257;60344;-38
2023/12/20 00:44:17;;;;;;;9.60;6.30;;;;;;;5.98;64.46;98788.54;107108;1257;73828;-39
2023/12/20 00:46:45;;;;;;;10.70;6.80;;;;;;;5.98;64.30;98786.02;107179;1257;67048;-39
2023/12/20 00:49:12;;;;;;;13.00;6.80;;;;;;;5.91;64.28;98772.35;107123;1260;72700;-38
2023/12/20 00:51:40;;;;;;;11.50;6.70;;;;;;;5.98;64.43;98779.08;107210;1257;59558;-38
2023/12/20 00:54:08;;;;;;;11.70;6.20;;;;;;;5.97;64.23;98771.67;107069;1257;60559;-39
2023/12/20 00:56:35;;;;;;;11.80;6.40;;;;;;;5.97;64.27;98773.30;107101;1257;73843;-39
2023/12/20 00:59:03;;;;;;;11.30;6.90;;;;;;;5.96;64.45;98773.19;107136;1257;67559;-39
2023/12/20 01:01:32;;;;;;;12.20;6.20;;;;;;;5.96;64.38;98766.19;107102;1257;70432;-39
2023/12/20 01:04:00;;;;;;;11.80;6.30;;;;;;;6.01;64.34;98756.27;107215;1257;60171;-38
2023/12/20 01:06:28;;;;;;;10.00;6.20;;;;;;;6.05;64.29;98749.23;107226;1256;60017;-38
2023/12/20 01:08:56;;;;;;;10.20;6.40;;;;;;;6.04;64.25;98752.14;107169;1257;73439;-39
2023/12/20 01:11:23;;;;;;;11.20;6.70;;;;;;;6.03;64.33;98748.63;107166;1257;66637;-39
2023/12/20 01:13:51;;;;;;;11.60;6.70;;;;;;;6.02;64.44;98746.98;107193;1261;71350;-39
2023/12/20 01:16:18;;;;;;;11.50;6.70;;;;;;;6.01;64.37;98746.41;107226;1257;60305;-39
2023/12/20 01:18:46;;;;;;;14.40;6.90;;;;;;;5.99;64.65;98744.75;107218;1257;60325;-39
2023/12/20 01:21:13;;;;;;;11.10;6.50;;;;;;;5.96;64.74;98739.38;107171;1257;73786;-39
2023/12/20 01:23:41;;;;;;;11.20;6.80;;;;;;;5.95;64.84;98740.96;107236;1257;67574;-39
2023/12/20 01:26:09;;;;;;;11.40;6.80;;;;;;;5.93;64.83;98735.83;107041;1258;72679;-38
2023/12/20 01:28:36;;;;;;;10.70;6.10;;;;;;;5.99;64.68;98741.52;107062;1257;60357;-39
2023/12/20 01:31:04;;;;;;;12.70;6.00;;;;;;;6.05;64.59;98743.30;107196;1257;59907;-39
2023/12/20 01:33:31;;;;;;;11.40;6.60;;;;;;;6.05;64.46;98730.86;107220;1257;73768;-39
2023/12/20 01:35:59;;;;;;;11.10;7.00;;;;;;;6.05;64.40;98731.63;107200;1257;66028;-39
2023/12/20 01:38:26;;;;;;;14.20;6.80;;;;;;;6.04;64.46;98728.77;107038;1257;71517;-39
2023/12/20 01:40:54;;;;;;;10.50;6.60;;;;;;;6.03;64.51;98727.71;107207;1257;60345;-39
2023/12/20 01:43:21;;;;;;;11.40;6.40;;;;;;;6.00;64.60;98726.80;107216;1257;60187;-39
2023/12/20 01:45:51;;;;;;;;;;;;;;;5.97;64.61;98719.10;107238;1257;74461;-39
2023/12/20 01:48:19;;;;;;;12.80;6.80;;;;;;;5.93;64.62;98714.08;107218;1257;66737;-39
2023/12/20 01:50:47;;;;;;;10.80;6.70;;;;;;;5.87;64.78;98705.00;107205;1257;72671;-39
2023/12/20 01:53:14;;;;;;;10.60;6.60;;;;;;;5.82;64.96;98704.15;107035;1257;61148;-39
2023/12/20 01:55:42;;;;;;;11.30;6.10;;;;;;;5.83;64.94;98696.23;107052;1257;60568;-39
2023/12/20 01:58:10;;;;;;;9.80;6.50;;;;;;;5.85;64.73;98695.94;107217;1256;73916;-39
2023/12/20 02:00:38;;;;;;;9.90;6.60;;;;;;;5.83;64.69;98689.73;107227;1263;66649;-39
2023/12/20 02:03:05;;;;;;;12.70;6.80;;;;;;;5.79;64.67;98682.00;107213;1257;72467;-39
2023/12/20 02:05:34;;;;;;;11.50;6.30;;;;;;;5.75;64.60;98686.50;107212;1258;60530;-39
2023/12/20 02:08:02;;;;;;;10.80;6.40;;;;;;;5.72;64.67;98683.05;107244;1257;60186;-39
2023/12/20 02:10:30;;;;;;;10.20;6.70;;;;;;;5.68;64.71;98675.41;107230;1257;73887;-40
2023/12/20 02:12:57;;;;;;;9.80;6.90;;;;;;;5.64;64.79;98673.38;107242;1257;67546;-39
2023/12/20 02:15:25;;;;;;;10.40;6.40;;;;;;;5.60;64.87;98674.90;107255;1257;72725;-38
2023/12/20 02:17:53;;;;;;;11.40;7.50;;;;;;;5.57;64.89;98671.48;107177;1257;60537;-40
2023/12/20 02:20:20;;;;;;;11.20;6.90;;;;;;;5.54;64.91;98669.73;107086;1257;60469;-39
2023/12/20 02:22:48;;;;;;;10.00;6.60;;;;;;;5.58;64.89;98670.84;107082;1257;72885;-39
2023/12/20 02:25:15;;;;;;;9.80;6.70;;;;;;;5.58;65.08;98675.98;107113;1257;66642;-39
2023/12/20 02:27:43;;;;;;;9.40;6.70;;;;;;;5.55;65.07;98676.16;107074;1257;72068;-39
2023/12/20 02:30:11;;;;;;;9.60;6.60;;;;;;;5.52;65.25;98670.67;107029;1257;59754;-39
2023/12/20 02:32:39;;;;;;;11.10;7.40;;;;;;;5.49;65.25;98669.52;107239;1261;60342;-39
2023/12/20 02:35:06;;;;;;;11.10;7.40;;;;;;;5.45;65.26;98661.80;107044;1257;72659;-39
2023/12/20 02:37:34;;;;;;;10.80;7.10;;;;;;;5.42;65.34;98668.31;107221;1257;66314;-39
2023/12/20 02:40:04;;;;;;;10.90;7.50;;;;;;;5.38;65.53;98666.52;107174;1257;71425;-39
2023/12/20 02:42:32;;;;;;;12.60;7.80;;;;;;;5.34;65.64;98664.57;107238;1257;60257;-39
2023/12/20 02:44:59;;;;;;;13.10;7.80;;;;;;;5.36;65.70;98663.23;107203;1257;60014;-39
2023/12/20 02:47:26;;;;;;;12.20;6.70;;;;;;;5.39;65.58;98658.16;107216;1257;72727;-39
2023/12/20 02:49:54;;;;;;;14.20;6.90;;;;;;;5.36;65.67;98650.89;107209;1257;67700;-39
2023/12/20 02:52:23;;;;;;;11.90;7.20;;;;;;;5.33;65.69;98644.20;107211;1258;71428;-39
2023/12/20 02:54:51;;;;;;;13.10;7.00;;;;;;;5.29;65.78;98641.37;107270;1262;59687;-39
2023/12/20 02:57:18;;;;;;;12.30;7.20;;;;;;;5.23;65.97;98643.14;107221;1257;60033;-39
2023/12/20 02:59:46;;;;;;;11.20;7.90;;;;;;;5.18;65.95;98638.40;107220;1257;73876;-39
2023/12/20 03:02:13;;;;;;;13.50;7.50;;;;;;;5.14;66.30;98638.75;107208;1257;66305;-39
2023/12/20 03:04:41;;;;;;;11.00;7.80;;;;;;;5.09;66.26;98639.28;107237;1257;71501;-39
2023/12/20 03:07:09;;;;;;;12.70;7.70;;;;;;;5.05;66.56;98632.87;107195;1258;60459;-39
2023/12/20 03:09:36;;;;;;;13.60;8.00;;;;;;;5.06;66.57;98629.08;107207;1257;60576;-38
2023/12/20 03:12:24;;;;;;;13.00;7.20;;;;;;;5.12;66.43;98635.30;107231;1261;73941;-38
2023/12/20 03:14:51;;;;;;;11.90;7.50;;;;;;;5.10;66.51;98633.39;107211;1257;67594;-39
2023/12/20 03:17:20;;;;;;;13.20;7.80;;;;;;;5.07;66.51;98631.63;107184;1257;72671;-39
2023/12/20 03:19:48;;;;;;;14.10;8.10;;;;;;;5.04;66.43;98636.76;107244;1257;60205;-39
2023/12/20 03:22:15;;;;;;;15.80;8.00;;;;;;;5.01;66.44;98638.91;107242;1257;61219;-39
2023/12/20 03:24:43;;;;;;;12.50;7.80;;;;;;;4.97;66.48;98643.33;107242;1257;73883;-38
2023/12/20 03:27:10;;;;;;;12.40;7.50;;;;;;;4.86;66.62;98631.23;107201;1261;67790;-38
2023/12/20 03:29:38;;;;;;;11.50;7.30;;;;;;;4.89;66.83;98646.75;107216;1257;71409;-38
2023/12/20 03:32:06;;;;;;;10.40;7.00;;;;;;;4.90;66.82;98649.86;107217;1260;60425;-38
2023/12/20 03:34:33;;;;;;;11.10;6.80;;;;;;;4.93;66.63;98652.25;107241;1257;60446;-38
2023/12/20 03:37:01;;;;;;;11.80;7.20;;;;;;;4.91;66.69;98651.88;107203;1257;73759;-39
2023/12/20 03:39:29;;;;;;;11.80;7.20;;;;;;;4.87;66.55;98646.54;107269;1257;66622;-39
2023/12/20 03:41:56;;;;;;;14.00;7.10;;;;;;;4.84;66.59;98647.30;107192;1257;72691;-39
2023/12/20 03:44:24;;;;;;;10.40;7.00;;;;;;;4.81;66.50;98640.24;107213;1260;60271;-39
2023/12/20 03:46:51;;;;;;;11.60;6.80;;;;;;;4.78;66.43;98640.68;107224;1257;60444;-39
2023/12/20 03:49:19;;;;;;;11.20;7.00;;;;;;;4.74;66.51;98643.11;107198;1257;73325;-39
2023/12/20 03:51:47;;;;;;;11.20;7.30;;;;;;;4.71;66.54;98650.35;107226;1257;66310;-39
2023/12/20 03:54:14;;;;;;;11.50;7.20;;;;;;;4.68;66.50;98642.55;107222;1257;73187;-39
2023/12/20 03:56:42;;;;;;;11.00;6.80;;;;;;;4.65;66.49;98638.15;107193;1257;60444;-38
2023/12/20 03:59:09;;;;;;;13.60;7.10;;;;;;;4.67;66.52;98638.21;107195;1257;59672;-39
2023/12/20 04:01:37;;;;;;;9.60;6.10;;;;;;;4.65;66.29;98624.64;107203;1257;72891;-40
2023/12/20 04:04:05;;;;;;;9.20;6.50;;;;;;;4.72;66.30;98633.98;107202;1257;67603;-40
2023/12/20 04:06:32;;;;;;;10.60;6.60;;;;;;;4.72;66.31;98635.84;107220;1258;71424;-38
2023/12/20 04:09:00;;;;;;;12.30;7.10;;;;;;;4.73;66.25;98637.09;107173;1258;60578;-39
2023/12/20 04:11:27;;;;;;;10.10;6.50;;;;;;;4.74;66.05;98636.58;107182;1257;60310;-39
2023/12/20 04:13:55;;;;;;;10.90;6.60;;;;;;;4.71;65.61;98643.46;107190;1258;72648;-39
2023/12/20 04:16:22;;;;;;;10.70;7.00;;;;;;;4.66;65.38;98644.25;107252;1257;67931;-38
2023/12/20 04:18:50;;;;;;;11.90;7.20;;;;;;;4.63;65.38;98642.94;107220;1257;72429;-39
2023/12/20 04:21:18;;;;;;;11.70;7.00;;;;;;;4.61;65.34;98628.35;107229;1258;60450;-38
2023/12/20 04:23:45;;;;;;;11.50;6.80;;;;;;;4.61;65.30;98631.81;107220;1257;60207;-39
2023/12/20 04:26:13;;;;;;;10.10;7.00;;;;;;;4.59;65.32;98638.67;107204;1257;72638;-39
2023/12/20 04:28:40;;;;;;;10.90;7.30;;;;;;;4.55;65.54;98644.13;107212;1257;67895;-39
2023/12/20 04:31:07;;;;;;;10.00;6.80;;;;;;;4.50;65.44;98639.52;107056;1260;72911;-39
2023/12/20 04:33:35;;;;;;;10.20;6.30;;;;;;;4.45;65.58;98638.23;107203;1258;60524;-39
2023/12/20 04:36:04;;;;;;;8.70;5.70;;;;;;;4.48;65.58;98638.23;107482;1253;60475;-39
2023/12/20 04:38:31;;;;;;;12.50;6.50;;;;;;;4.53;65.35;98636.08;107646;1253;73890;-39
2023/12/20 04:40:59;;;;;;;11.40;6.50;;;;;;;4.54;65.42;98643.40;107489;1254;67620;-39
2023/12/20 04:43:26;;;;;;;10.70;7.30;;;;;;;4.51;65.38;98648.68;107519;1258;71833;-39
2023/12/20 04:45:54;;;;;;;11.30;6.80;;;;;;;4.51;65.54;98653.20;107526;1254;59634;-39
2023/12/20 04:48:22;;;;;;;10.50;6.50;;;;;;;4.53;65.45;98651.73;107544;1253;60287;-39
2023/12/20 04:50:49;;;;;;;10.40;6.70;;;;;;;4.53;65.25;98651.80;107532;1253;73908;-39
2023/12/20 04:53:17;;;;;;;11.50;7.10;;;;;;;4.51;65.35;98655.20;107553;1254;66757;-39
2023/12/20 04:55:44;;;;;;;13.10;7.00;;;;;;;4.50;65.35;98652.72;107509;1253;71398;-39
2023/12/20 04:58:12;;;;;;;9.50;6.50;;;;;;;4.49;65.22;98650.38;107481;1254;60543;-39
2023/12/20 05:00:40;;;;;;;10.30;7.20;;;;;;;4.49;65.37;98651.48;107522;1254;60316;-39
2023/12/20 05:03:07;;;;;;;9.60;6.40;;;;;;;4.51;65.26;98655.26;107523;1254;73626;-39
2023/12/20 05:05:37;;;;;;;12.60;6.90;;;;;;;4.49;65.29;98660.52;107624;1253;67567;-39
2023/12/20 05:08:05;;;;;;;9.60;6.50;;;;;;;4.47;65.72;98664.34;107511;1254;72520;-39
2023/12/20 05:10:34;;;;;;;12.50;7.00;;;;;;;4.44;65.90;98666.92;107558;1254;60425;-38
2023/12/20 05:13:01;;;;;;;10.10;6.60;;;;;;;4.47;65.93;98667.34;107561;1254;60437;-38
2023/12/20 05:15:29;;;;;;;9.70;6.70;;;;;;;4.53;65.90;98665.46;107571;1254;73446;-39
2023/12/20 05:17:57;;;;;;;9.20;6.80;;;;;;;4.53;66.13;98659.86;107535;1254;66333;-39
2023/12/20 05:20:24;;;;;;;10.60;6.20;;;;;;;4.50;66.29;98657.02;107529;1254;72835;-39
2023/12/20 05:22:52;;;;;;;12.20;6.80;;;;;;;4.49;66.35;98652.14;107539;1254;60350;-39
2023/12/20 05:25:20;;;;;;;10.20;6.60;;;;;;;4.48;66.38;98651.34;107500;1253;60546;-39
2023/12/20 05:27:48;;;;;;;12.00;6.50;;;;;;;4.49;66.24;98646.84;107517;1254;72619;-39
2023/12/20 05:30:16;;;;;;;12.30;6.40;;;;;;;4.47;66.31;98643.03;107532;1258;67675;-39
2023/12/20 05:32:44;;;;;;;10.60;6.90;;;;;;;4.43;66.55;98637.69;107486;1254;72689;-39
2023/12/20 05:35:11;;;;;;;10.40;6.50;;;;;;;4.40;66.48;98639.52;107502;1254;60434;-39
2023/12/20 05:37:39;;;;;;;12.00;6.10;;;;;;;4.45;66.35;98644.04;107500;1254;59989;-40
2023/12/20 05:40:10;;;;;;;9.00;6.50;;;;;;;4.50;66.23;98644.98;107604;1254;73832;-40
2023/12/20 05:42:38;;;;;;;10.70;6.00;;;;;;;4.51;66.37;98639.92;107501;1254;67554;-39
2023/12/20 05:45:06;;;;;;;12.10;6.90;;;;;;;4.49;66.41;98639.79;107484;1254;72680;-38
2023/12/20 05:47:33;;;;;;;11.00;7.00;;;;;;;4.47;66.41;98637.58;107541;1254;60351;-38
2023/12/20 05:50:01;;;;;;;12.40;6.90;;;;;;;4.45;66.42;98641.44;107488;1254;60847;-39
2023/12/20 05:52:28;;;;;;;12.10;7.10;;;;;;;4.42;66.45;98640.88;107537;1254;73844;-39
2023/12/20 05:54:57;;;;;;;11.10;7.30;;;;;;;4.40;66.68;98636.23;107486;1256;66619;-39
2023/12/20 05:57:25;;;;;;;13.70;6.90;;;;;;;4.37;66.74;98629.30;107526;1258;72711;-39
2023/12/20 05:59:53;;;;;;;10.00;6.70;;;;;;;4.42;66.65;98634.73;107497;1254;60435;-39
2023/12/20 06:02:20;;;;;;;12.50;7.20;;;;;;;4.48;66.63;98630.88;107513;1254;60511;-39
2023/12/20 06:04:48;;;;;;;12.60;7.20;;;;;;;4.47;66.55;98631.13;107514;1254;73838;-39
2023/12/20 06:07:16;;;;;;;12.70;7.70;;;;;;;4.43;66.71;98629.95;107489;1254;66279;-39
2023/12/20 06:09:44;;;;;;;11.50;7.00;;;;;;;4.44;66.57;98630.05;107507;1254;72693;-39
2023/12/20 06:12:12;;;;;;;10.80;6.80;;;;;;;4.42;66.67;98632.05;107601;1254;60385;-39
2023/12/20 06:14:40;;;;;;;13.00;7.00;;;;;;;4.41;66.67;98632.72;107505;1253;60299;-39
2023/12/20 06:17:07;;;;;;;10.70;6.70;;;;;;;4.43;66.65;98634.09;107495;1254;73793;-39
2023/12/20 06:19:35;;;;;;;11.00;6.80;;;;;;;4.43;66.65;98635.45;107477;1253;66683;-39
2023/12/20 06:22:03;;;;;;;11.20;6.80;;;;;;;4.44;66.54;98636.80;107476;1254;72650;-39
2023/12/20 06:24:33;;;;;;;12.80;7.00;;;;;;;4.49;66.41;98633.98;107516;1254;60530;-39
2023/12/20 06:27:00;;;;;;;8.30;6.40;;;;;;;4.57;66.25;98633.73;107509;1254;59575;-39
2023/12/20 06:29:28;;;;;;;10.60;6.90;;;;;;;4.59;66.21;98635.91;107480;1254;73892;-38
2023/12/20 06:31:55;;;;;;;14.20;6.50;;;;;;;4.61;66.04;98642.16;107529;1254;66362;-39
2023/12/20 06:34:23;;;;;;;13.90;6.80;;;;;;;4.63;66.08;98636.25;107496;1254;72740;-39
2023/12/20 06:36:51;;;;;;;9.00;6.20;;;;;;;4.67;66.04;98630.45;107501;1254;60572;-39
2023/12/20 06:39:18;;;;;;;9.50;6.60;;;;;;;4.69;65.88;98629.55;107497;1254;60441;-39
2023/12/20 06:41:46;;;;;;;10.70;6.90;;;;;;;4.71;65.83;98638.71;107510;1254;73831;-39
2023/12/20 06:44:13;;;;;;;12.70;7.60;;;;;;;4.74;65.73;98642.70;107496;1254;67619;-39
2023/12/20 06:46:41;;;;;;;11.50;6.40;;;;;;;4.76;65.74;98638.71;107509;1254;72426;-39
2023/12/20 06:49:08;;;;;;;11.50;6.40;;;;;;;4.79;65.69;98639.58;107527;1254;60183;-39
2023/12/20 06:51:36;;;;;;;9.90;6.10;;;;;;;4.83;65.78;98638.13;107376;1254;164055;-39
2023/12/20 06:55:56;;;;;;;9.70;5.70;;;;;;;5.03;65.64;98633.38;104214;1291;599573;-39
2023/12/20 06:58:23;;;;;;;10.70;6.00;;;;;;;5.11;65.66;98633.66;106739;1263;59154;-39
2023/12/20 07:00:51;;;;;;;9.20;6.30;;;;;;;5.19;65.71;98631.89;106740;1264;60023;-39
2023/12/20 07:03:19;;;;;;;10.30;6.30;;;;;;;5.24;65.51;98639.80;106731;1263;72237;-39
2023/12/20 07:05:47;;;;;;;11.60;5.90;;;;;;;5.25;65.26;98646.67;106766;1268;67620;-39
2023/12/20 07:08:15;;;;;;;10.00;5.90;;;;;;;5.26;65.18;98647.39;106781;1264;72480;-40
2023/12/20 07:10:43;;;;;;;9.10;6.10;;;;;;;5.26;65.08;98647.45;106850;1260;98545;-40
2023/12/20 07:13:10;;;;;;;9.40;5.70;;;;;;;5.27;65.13;98650.18;107005;1260;60000;-40
2023/12/20 07:15:38;;;;;;;9.20;5.70;;;;;;;5.28;65.14;98652.19;106863;1260;72603;-40
2023/12/20 07:18:07;;;;;;;10.70;5.60;;;;;;;5.37;64.96;98651.67;106904;1260;67537;-40
2023/12/20 07:20:35;;;;;;;9.60;5.40;;;;;;;5.50;64.36;98649.64;107165;1257;72494;-40
2023/12/20 07:23:02;;;;;;;8.30;5.80;;;;;;;5.57;63.89;98638.57;107134;1259;59720;-40
2023/12/20 07:25:32;;;;;;;8.60;5.70;;;;;;;5.62;63.38;98636.30;107268;1257;59557;-40
2023/12/20 07:28:00;;;;;;;9.40;5.60;;;;;;;5.64;63.32;98638.06;107227;1257;73059;-39
2023/12/20 07:30:28;;;;;;;8.60;6.10;;;;;;;5.70;63.17;98633.60;107236;1257;68146;-39
2023/12/20 07:32:56;;;;;;;9.00;5.10;;;;;;;5.74;62.75;98627.16;107168;1257;72481;-39
2023/12/20 07:35:25;;;;;;;10.40;5.10;;;;;;;5.78;62.81;98624.17;107220;1257;59550;-39
2023/12/20 07:37:53;;;;;;;8.60;5.30;;;;;;;5.79;62.45;98617.46;107182;1257;59599;-39
2023/12/20 07:40:20;;;;;;;11.30;5.70;;;;;;;5.82;62.33;98615.00;107222;1258;71276;-39
2023/12/20 07:42:48;;;;;;;7.20;5.40;;;;;;;5.86;62.26;98607.42;107199;1257;67570;-39
2023/12/20 07:45:16;;;;;;;9.20;5.50;;;;;;;5.90;62.14;98607.33;107184;1257;73128;-39
2023/12/20 07:47:43;;;;;;;8.00;5.30;;;;;;;5.94;62.27;98596.29;107057;1257;59635;-39
2023/12/20 07:50:11;;;;;;;13.60;5.90;;;;;;;6.00;61.98;98594.11;107074;1257;59608;-39
2023/12/20 07:52:39;;;;;;;9.10;5.60;;;;;;;6.04;61.90;98600.84;107069;1257;71789;-39
2023/12/20 07:55:07;;;;;;;8.70;5.30;;;;;;;6.08;61.60;98608.01;107091;1257;67678;-39
2023/12/20 07:57:35;;;;;;;9.30;5.60;;;;;;;6.10;61.06;98601.27;107060;1262;72674;-39
2023/12/20 08:00:03;;;;;;;7.90;5.20;;;;;;;6.11;61.02;98601.30;107114;1258;59430;-39
2023/12/20 08:02:31;;;;;;;9.00;5.40;;;;;;;6.14;61.17;98606.61;107116;1257;59523;-40
2023/12/20 08:04:59;;;;;;;9.40;5.80;;;;;;;6.21;60.80;98607.84;107071;1262;71280;-39
2023/12/20 08:07:26;;;;;;;8.50;5.70;;;;;;;6.29;60.75;98606.57;107064;1258;66405;-40
2023/12/20 08:09:56;;;;;;;9.00;5.80;;;;;;;6.38;60.93;98612.56;107092;1260;72646;-40
2023/12/20 08:12:25;;;;;;;9.80;6.40;;;;;;;6.48;60.43;98612.63;107159;1261;59608;-40
2023/12/20 08:14:54;;;;;;;8.50;5.80;;;;;;;6.58;60.11;98612.16;107112;1262;59810;-39
2023/12/20 08:17:23;;;;;;;10.00;6.30;;;;;;;6.67;59.71;98607.21;107190;1260;72300;-39
2023/12/20 08:19:51;;;;;;;11.10;6.70;;;;;;;6.77;59.48;98608.04;107066;1259;67743;-40
2023/12/20 08:22:19;;;;;;;8.40;5.80;;;;;;;6.86;58.87;98604.01;107043;1260;72661;-39
2023/12/20 08:24:46;;;;;;;9.60;5.90;;;;;;;6.95;58.61;98599.73;107179;1260;59633;-39
2023/12/20 08:27:14;;;;;;;10.00;5.70;;;;;;;7.02;58.22;98599.79;107071;1261;60082;-39
2023/12/20 08:29:44;;;;;;;7.80;5.30;;;;;;;7.06;57.76;98595.95;107492;1254;73090;-39
2023/12/20 08:32:12;;;;;;;9.10;5.50;;;;;;;7.09;57.67;98595.61;107467;1254;68316;-39
2023/12/20 08:34:39;;;;;;;8.20;5.60;;;;;;;7.11;57.75;98600.21;107466;1254;71422;-39
2023/12/20 08:37:07;;;;;;;9.70;5.90;;;;;;;7.14;57.65;98600.17;107468;1254;59742;-39
2023/12/20 08:39:35;;;;;;;10.10;6.10;;;;;;;7.15;57.86;98595.37;107496;1254;60069;-39
2023/12/20 08:42:03;;;;;;;11.90;6.20;;;;;;;7.19;57.45;98595.05;107520;1254;73095;-39
2023/12/20 08:44:31;;;;;;;7.70;5.50;;;;;;;7.24;57.60;98596.32;107567;1254;67783;-38
2023/12/20 08:46:58;;;;;;;9.70;6.20;;;;;;;7.29;58.04;98598.27;107483;1254;71474;-39
2023/12/20 08:49:26;;;;;;;12.50;6.70;;;;;;;7.33;58.24;98589.95;107500;1254;59548;-39
2023/12/20 08:51:53;;;;;;;11.60;6.80;;;;;;;7.35;58.06;98587.60;107492;1253;60045;-40
2023/12/20 08:54:21;;;;;;;10.60;6.20;;;;;;;7.38;57.99;98585.64;107507;1254;71773;-40
2023/12/20 08:56:49;;;;;;;12.20;6.70;;;;;;;7.41;57.50;98587.39;107520;1254;66423;-39
2023/12/20 08:59:18;;;;;;;10.70;6.30;;;;;;;7.46;57.65;98585.95;107511;1254;71497;-39
2023/12/20 09:01:48;;;;;;;9.80;6.10;;;;;;;7.56;57.54;98584.83;107531;1254;59771;-39
2023/12/20 09:04:15;;;;;;;11.10;6.90;;;;;;;7.66;57.03;98579.84;107564;1253;59532;-39
2023/12/20 09:06:44;;;;;;;10.30;6.50;;;;;;;7.75;56.82;98573.30;107516;1253;73072;-39
2023/12/20 09:09:13;;;;;;;9.00;6.40;;;;;;;7.84;56.15;98570.05;107562;1254;67872;-39
2023/12/20 09:11:41;;;;;;;8.20;5.00;;;;;;;7.84;55.28;98568.45;107479;1256;72693;-39
2023/12/20 09:14:09;;;;;;;10.90;6.50;;;;;;;7.82;55.27;98565.16;107471;1253;59629;-39
2023/12/20 09:16:37;;;;;;;10.60;6.10;;;;;;;7.79;55.30;98568.27;107513;1254;59605;-39
2023/12/20 09:19:04;;;;;;;9.90;6.30;;;;;;;7.79;55.64;98565.65;107509;1254;73069;-39
2023/12/20 09:21:32;;;;;;;9.60;6.40;;;;;;;7.79;55.61;98564.02;107517;1253;66852;-39
2023/12/20 09:23:59;;;;;;;8.40;6.20;;;;;;;7.80;55.76;98560.42;107477;1254;72724;-39
2023/12/20 09:26:27;;;;;;;10.10;6.30;;;;;;;7.86;55.73;98561.98;107490;1254;59683;-39
2023/12/20 09:28:54;;;;;;;9.30;6.50;;;;;;;7.97;55.56;98553.29;107528;1253;59739;-39
2023/12/20 09:31:22;;;;;;;9.00;6.40;;;;;;;8.07;55.45;98549.23;107508;1254;72678;-39
2023/12/20 09:33:50;;;;;;;11.80;6.80;;;;;;;8.16;55.28;98550.66;107531;1254;67411;-39
2023/12/20 09:36:18;;;;;;;10.50;6.40;;;;;;;8.23;54.76;98545.84;107526;1254;71762;-39
2023/12/20 09:38:45;;;;;;;9.10;6.30;;;;;;;8.30;54.87;98537.61;107477;1254;59663;-39
2023/12/20 09:41:14;;;;;;;8.40;6.30;;;;;;;8.39;54.46;98536.23;107502;1254;60067;-40
2023/12/20 09:43:42;;;;;;;11.30;6.20;;;;;;;8.46;54.23;98535.16;107510;1254;71857;-40
2023/12/20 09:46:10;;;;;;;8.80;5.60;;;;;;;8.54;54.00;98532.34;107476;1253;67597;-40
2023/12/20 09:48:37;;;;;;;9.20;5.60;;;;;;;8.61;53.83;98530.96;107304;1254;72753;-40
2023/12/20 09:51:05;;;;;;;8.40;5.60;;;;;;;8.70;53.50;98532.31;107473;1253;59776;-41
2023/12/20 09:53:32;;;;;;;7.70;5.70;;;;;;;8.80;53.41;98531.73;107518;1254;59186;-40
2023/12/20 09:56:00;;;;;;;10.30;6.00;;;;;;;8.92;52.63;98535.22;107510;1254;73388;-40
2023/12/20 09:58:28;;;;;;;9.00;6.00;;;;;;;9.02;51.21;98526.39;107512;1253;68102;-41
2023/12/20 10:00:56;;;;;;;9.10;5.50;;;;;;;9.09;51.65;98528.62;107349;1254;72766;-40
2023/12/20 10:03:26;;;;;;;7.80;5.50;;;;;;;9.18;51.31;98527.09;107547;1253;60195;-39
2023/12/20 10:05:57;;;;;;;9.40;5.60;;;;;;;9.25;50.99;98528.02;107603;1253;60405;-39
2023/12/20 10:08:25;;;;;;;9.60;5.90;;;;;;;9.30;50.61;98525.06;107359;1253;73436;-39
2023/12/20 10:10:53;;;;;;;8.20;5.50;;;;;;;9.36;50.77;98524.11;107499;1258;67541;-39
2023/12/20 10:13:20;;;;;;;10.10;5.50;;;;;;;9.41;50.61;98522.30;107516;1257;72691;-40
2023/12/20 10:15:49;;;;;;;8.90;5.50;;;;;;;9.44;50.54;98522.41;107487;1254;60044;-40
2023/12/20 10:18:17;;;;;;;6.80;4.90;;;;;;;9.48;50.47;98521.69;107537;1255;59724;-40
2023/12/20 10:20:45;;;;;;;6.60;5.10;;;;;;;9.57;49.65;98519.76;107558;1254;73129;-40
2023/12/20 10:23:13;;;;;;;8.90;5.60;;;;;;;9.62;49.54;98514.86;107535;1259;66858;-40
2023/12/20 10:25:44;;;;;;;7.60;5.60;;;;;;;9.66;49.87;98512.04;107307;1254;72729;-40
2023/12/20 10:28:13;;;;;;;9.30;5.20;;;;;;;9.73;50.00;98505.59;107503;1254;60364;-40
2023/12/20 10:30:41;;;;;;;;;;;;;;;9.81;49.17;98508.45;107568;1254;61316;-40
2023/12/20 10:33:10;;;;;;;7.70;5.60;;;;;;;9.82;49.02;98509.62;107488;1259;73139;-40
2023/12/20 10:35:39;;;;;;;7.70;5.40;;;;;;;9.82;49.47;98497.63;107524;1253;66686;-39
2023/12/20 10:38:11;;;;;;;9.10;5.80;;;;;;;9.87;49.80;98491.71;107490;1253;72887;-40
2023/12/20 10:40:39;;;;;;;8.40;5.80;;;;;;;9.95;49.37;98488.98;107491;1254;59586;-40
2023/12/20 10:43:07;;;;;;;10.20;7.40;;;;;;;10.01;48.73;98483.15;107527;1253;60338;-40
2023/12/20 10:45:34;;;;;;;8.20;6.50;;;;;;;10.03;48.29;98482.55;107522;1254;71843;-40
2023/12/20 10:48:03;;;;;;;8.80;5.60;;;;;;;10.07;48.77;98484.27;107506;1258;68281;-40
2023/12/20 10:50:31;;;;;;;8.00;5.80;;;;;;;10.14;48.29;98475.13;107396;1254;72467;-40
2023/12/20 10:52:59;;;;;;;7.40;5.40;;;;;;;10.23;48.54;98471.41;107524;1253;60159;-39
2023/12/20 10:55:27;;;;;;;8.20;6.30;;;;;;;10.37;49.13;98476.73;107463;1254;60118;-40
2023/12/20 10:58:00;;;;;;;9.40;6.00;;;;;;;10.48;49.32;98474.02;107324;1255;73124;-40
2023/12/20 11:00:30;;;;;;;8.00;5.50;;;;;;;10.56;48.63;98471.11;107481;1254;67727;-40
2023/12/20 11:03:00;;;;;;;;;;;;;;;10.62;48.26;98471.05;107489;1259;72786;-40
2023/12/20 11:05:45;;;;;;;8.00;5.60;;;;;;;10.68;47.20;98464.49;107503;1254;60409;-39
2023/12/20 11:08:41;;;;;;;7.50;5.60;;;;;;;10.70;47.59;98464.89;107486;1254;60325;-40
2023/12/20 11:11:15;;;;;;;9.50;6.20;;;;;;;10.71;47.36;98462.65;107357;1254;73966;-40
2023/12/20 11:14:00;;;;;;;8.20;5.40;;;;;;;10.73;47.20;98465.14;107500;1254;66748;-40
2023/12/20 11:16:28;;;;;;;10.30;5.50;;;;;;;10.76;46.64;98462.90;107500;1257;71556;-40
2023/12/20 11:19:08;;;;;;;8.40;5.50;;;;;;;10.76;46.55;98461.66;107492;1257;59645;-40
2023/12/20 11:21:36;;;;;;;7.50;5.00;;;;;;;10.81;46.67;98460.83;107472;1254;60524;-41
2023/12/20 11:24:03;;;;;;;8.70;5.00;;;;;;;10.86;46.41;98467.97;107444;1253;72591;-41
2023/12/20 11:26:31;;;;;;;9.20;5.30;;;;;;;10.87;46.67;98463.19;107452;1254;67735;-41
2023/12/20 11:29:30;;;;;;;7.00;5.00;;;;;;;10.87;47.09;98464.65;107442;1254;72763;-41
2023/12/20 11:32:00;;;;;;;7.60;5.10;;;;;;;10.86;46.99;98466.73;107452;1254;60446;-41
2023/12/20 11:34:28;;;;;;;7.20;5.20;;;;;;;10.86;47.40;98466.80;107493;1254;60570;-41
2023/12/20 11:36:58;;;;;;;8.90;5.70;;;;;;;10.89;47.07;98465.97;107444;1253;73927;-40